Terminal Aerodrome Forecast
Issued by NWS

Home | Current Version | Previous Version | Text Only | Print | Product List | Glossary On
Versions: 1 2 3 4 5 6 7 8 9 10 11 12 13 14 15 16 17 18
000
FTUS43 KDTX 170330 AAA
TAFDET
TAF AMD
KDET 170330Z 1704/1724 05007KT P6SM SCT020 BKN080
     FM170600 03005KT P6SM OVC020
     FM171000 09005KT P6SM OVC012
     FM172300 18007KT 5SM BR OVC007=

USA.gov is the U.S. government's official web portal to all federal, state and local government web resources and services.